Time;durP1;ratioP1;P1;durP2;ratioP2;P2;SDS_P1;SDS_P2;PMS_P1;PMS_P2;Temp;Humidity;BMP_temperature;BMP_pressure;BME280_temperature;BME280_humidity;BME280_pressure;Samples;Min_cycle;Max_cycle;Signal;HPM_P1;HPM_P2
2022/10/27 00:02:03;;;;;;;7.97;3.88;;;;;;;;;;5081482;28;20072;-61
2022/10/27 00:04:29;;;;;;;11.55;4.78;;;;;;;;;;5081852;28;20056;-61
2022/10/27 00:06:55;;;;;;;9.30;4.47;;;;;;;;;;5066938;28;20049;-62
2022/10/27 00:09:22;;;;;;;10.52;4.32;;;;;;;;;;5081313;28;20120;-61
2022/10/27 00:11:48;;;;;;;9.98;4.57;;;;;;;;;;5073937;28;20059;-62
2022/10/27 00:14:15;;;;;;;8.15;4.30;;;;;;;;;;5081527;28;20067;-61
2022/10/27 00:16:41;;;;;;;7.60;3.92;;;;;;;;;;5065969;28;20140;-61
2022/10/27 00:19:07;;;;;;;6.78;4.57;;;;;;;;;;5084883;28;20047;-62
2022/10/27 00:21:34;;;;;;;9.40;4.07;;;;;;;;;;5079931;28;20132;-62
2022/10/27 00:24:00;;;;;;;7.57;3.85;;;;;;;;;;5078955;28;20060;-62
2022/10/27 00:26:26;;;;;;;11.60;5.40;;;;;;;;;;5070380;28;20064;-61
2022/10/27 00:28:53;;;;;;;6.63;4.18;;;;;;;;;;5071606;28;20049;-63
2022/10/27 00:31:20;;;;;;;11.88;4.15;;;;;;;;;;5082003;28;20048;-61
2022/10/27 00:33:47;;;;;;;10.57;4.32;;;;;;;;;;5089469;28;20110;-61
2022/10/27 00:36:15;;;;;;;9.50;3.97;;;;;;;;;;5089348;28;20059;-62
2022/10/27 00:38:42;;;;;;;8.57;4.65;;;;;;;;;;5078943;28;20481;-62
2022/10/27 00:41:21;;;;;;;8.80;4.28;;;;;;;;;;5074880;28;20115;-62
2022/10/27 00:43:47;;;;;;;7.38;3.80;;;;;;;;;;5078822;28;20052;-63
2022/10/27 00:46:17;;;;;;;8.20;4.63;;;;;;;;;;5079866;28;20048;-62
2022/10/27 00:48:43;;;;;;;10.23;4.47;;;;;;;;;;5078439;28;20057;-61
2022/10/27 00:51:12;;;;;;;10.75;4.45;;;;;;;;;;5062424;28;20060;-61
2022/10/27 00:53:39;;;;;;;7.15;4.55;;;;;;;;;;5080122;28;20048;-61
2022/10/27 00:56:05;;;;;;;6.82;4.53;;;;;;;;;;5079808;28;20075;-61
2022/10/27 00:58:32;;;;;;;8.45;4.63;;;;;;;;;;5067354;28;20049;-62
2022/10/27 01:00:59;;;;;;;8.15;4.65;;;;;;;;;;5080340;28;20043;-61
2022/10/27 01:03:26;;;;;;;8.93;4.50;;;;;;;;;;5078416;28;20601;-61
2022/10/27 01:05:53;;;;;;;5.68;4.32;;;;;;;;;;5068205;28;20087;-61
2022/10/27 01:08:22;;;;;;;10.30;4.40;;;;;;;;;;5069656;28;20049;-61
2022/10/27 01:10:48;;;;;;;8.73;4.35;;;;;;;;;;5080183;28;20060;-61
2022/10/27 01:13:15;;;;;;;9.43;4.80;;;;;;;;;;5085857;27;20098;-60
2022/10/27 01:15:47;;;;;;;8.93;4.57;;;;;;;;;;5081027;28;20048;-62
2022/10/27 01:18:26;;;;;;;13.43;5.15;;;;;;;;;;5079029;28;20057;-63
2022/10/27 01:20:55;;;;;;;8.27;5.03;;;;;;;;;;5071389;28;20053;-61
2022/10/27 01:23:25;;;;;;;8.38;4.72;;;;;;;;;;5063120;28;20056;-61
2022/10/27 01:25:57;;;;;;;8.57;4.65;;;;;;;;;;5068204;28;20048;-62
2022/10/27 01:28:38;;;;;;;15.18;5.38;;;;;;;;;;5085373;28;20051;-62
2022/10/27 01:31:08;;;;;;;14.55;5.35;;;;;;;;;;5078348;28;20580;-61
2022/10/27 01:33:37;;;;;;;8.98;4.65;;;;;;;;;;5075569;28;20063;-61
2022/10/27 01:36:08;;;;;;;7.93;4.43;;;;;;;;;;5069210;28;20651;-61
2022/10/27 01:38:39;;;;;;;7.90;4.20;;;;;;;;;;5082225;28;20617;-61
2022/10/27 01:41:07;;;;;;;9.38;4.93;;;;;;;;;;5070560;28;20057;-61
2022/10/27 01:43:34;;;;;;;13.38;6.22;;;;;;;;;;5072258;27;20812;-62
2022/10/27 01:46:02;;;;;;;12.80;5.40;;;;;;;;;;5068910;28;20049;-61
2022/10/27 01:48:31;;;;;;;8.52;4.97;;;;;;;;;;5066669;28;20053;-62
2022/10/27 01:50:57;;;;;;;11.48;5.30;;;;;;;;;;5075638;28;20060;-60
2022/10/27 01:53:29;;;;;;;8.90;5.57;;;;;;;;;;5081624;28;20052;-61
2022/10/27 01:55:58;;;;;;;11.55;5.55;;;;;;;;;;5078172;28;20052;-61
2022/10/27 01:58:37;;;;;;;12.85;5.30;;;;;;;;;;5081555;28;20063;-62
2022/10/27 02:01:03;;;;;;;8.50;4.88;;;;;;;;;;5081048;28;20063;-62
2022/10/27 02:03:44;;;;;;;12.15;5.55;;;;;;;;;;5082751;28;20111;-61
2022/10/27 02:06:17;;;;;;;9.13;5.68;;;;;;;;;;5080861;28;20048;-62
2022/10/27 02:08:47;;;;;;;11.23;5.50;;;;;;;;;;5083919;28;20064;-61
2022/10/27 02:11:13;;;;;;;13.20;5.88;;;;;;;;;;5077919;28;20506;-62
2022/10/27 02:13:42;;;;;;;11.88;5.60;;;;;;;;;;5066595;28;20056;-61
2022/10/27 02:16:10;;;;;;;10.48;4.65;;;;;;;;;;5071656;28;20048;-60
2022/10/27 02:18:38;;;;;;;14.13;5.93;;;;;;;;;;5068568;28;20056;-62
2022/10/27 02:21:07;;;;;;;15.25;5.53;;;;;;;;;;5082752;28;20064;-61
2022/10/27 02:23:34;;;;;;;14.60;5.97;;;;;;;;;;5084089;28;20075;-62
2022/10/27 02:26:10;;;;;;;12.88;5.70;;;;;;;;;;5088503;28;20048;-62
2022/10/27 02:28:39;;;;;;;9.20;5.35;;;;;;;;;;5079477;28;20045;-61
2022/10/27 02:31:06;;;;;;;7.50;5.50;;;;;;;;;;5081490;28;20055;-61
2022/10/27 02:33:33;;;;;;;9.90;5.55;;;;;;;;;;5076643;28;20052;-61
2022/10/27 02:35:59;;;;;;;9.27;5.63;;;;;;;;;;5069685;28;20526;-62
2022/10/27 02:38:25;;;;;;;9.60;4.90;;;;;;;;;;5071996;28;20499;-61
2022/10/27 02:40:52;;;;;;;10.00;5.85;;;;;;;;;;5076856;28;20057;-61
2022/10/27 02:43:18;;;;;;;12.55;5.68;;;;;;;;;;5076346;28;20064;-62
2022/10/27 02:45:45;;;;;;;11.95;6.25;;;;;;;;;;5067607;28;20060;-61
2022/10/27 02:48:11;;;;;;;10.63;5.60;;;;;;;;;;5062784;28;20057;-62
2022/10/27 02:50:37;;;;;;;10.43;6.00;;;;;;;;;;5082224;28;20057;-61
2022/10/27 02:53:09;;;;;;;9.90;5.28;;;;;;;;;;5098387;28;20518;-61
2022/10/27 02:55:35;;;;;;;10.27;5.65;;;;;;;;;;5083192;28;20065;-61
2022/10/27 02:58:01;;;;;;;9.15;5.40;;;;;;;;;;5078892;28;20438;-61
2022/10/27 03:00:28;;;;;;;7.03;4.93;;;;;;;;;;5077259;28;20140;-61
2022/10/27 03:02:54;;;;;;;14.90;5.75;;;;;;;;;;5081142;28;20517;-61
2022/10/27 03:05:21;;;;;;;11.00;5.70;;;;;;;;;;5078699;28;20053;-61
2022/10/27 03:07:47;;;;;;;10.00;5.90;;;;;;;;;;5079964;28;20056;-62
2022/10/27 03:10:13;;;;;;;9.25;5.75;;;;;;;;;;5081786;28;20968;-61
2022/10/27 03:12:40;;;;;;;9.77;5.53;;;;;;;;;;5071032;28;20049;-61
2022/10/27 03:15:06;;;;;;;10.27;4.95;;;;;;;;;;5076795;28;20454;-61
2022/10/27 03:17:32;;;;;;;7.43;5.22;;;;;;;;;;5072942;28;20556;-61
2022/10/27 03:19:59;;;;;;;10.68;5.70;;;;;;;;;;5086230;28;20059;-61
2022/10/27 03:22:25;;;;;;;11.27;5.47;;;;;;;;;;5082861;27;20057;-62
2022/10/27 03:24:52;;;;;;;11.50;5.82;;;;;;;;;;5079791;28;20495;-61
2022/10/27 03:27:18;;;;;;;9.18;5.72;;;;;;;;;;5081356;28;20083;-61
2022/10/27 03:29:45;;;;;;;7.00;5.15;;;;;;;;;;5073429;28;20435;-61
2022/10/27 03:32:16;;;;;;;7.63;5.32;;;;;;;;;;5079628;28;20061;-61
2022/10/27 03:34:42;;;;;;;6.85;4.75;;;;;;;;;;5069244;28;20551;-61
2022/10/27 03:37:09;;;;;;;11.90;5.32;;;;;;;;;;5078264;28;20053;-61
2022/10/27 03:39:35;;;;;;;9.38;4.93;;;;;;;;;;5082388;28;20056;-61
2022/10/27 03:42:01;;;;;;;13.40;5.05;;;;;;;;;;5069586;28;20052;-62
2022/10/27 03:44:28;;;;;;;9.95;5.80;;;;;;;;;;5093140;28;20131;-62
2022/10/27 03:46:54;;;;;;;11.60;5.18;;;;;;;;;;5081029;28;20053;-61
2022/10/27 03:49:21;;;;;;;9.00;4.90;;;;;;;;;;5073352;28;20542;-62
2022/10/27 03:51:47;;;;;;;10.93;4.85;;;;;;;;;;5080876;28;20123;-61
2022/10/27 03:54:14;;;;;;;8.07;4.97;;;;;;;;;;5082072;28;20045;-62
2022/10/27 03:56:41;;;;;;;12.90;4.95;;;;;;;;;;5080519;28;20044;-61
2022/10/27 03:59:08;;;;;;;11.48;4.88;;;;;;;;;;5078110;28;20056;-61
2022/10/27 04:01:35;;;;;;;9.93;4.72;;;;;;;;;;5080533;28;20435;-62
2022/10/27 04:04:03;;;;;;;10.43;4.53;;;;;;;;;;5081821;28;20136;-62
2022/10/27 04:06:30;;;;;;;8.52;4.90;;;;;;;;;;5077970;28;20049;-61
2022/10/27 04:08:56;;;;;;;9.80;4.70;;;;;;;;;;5081533;28;20110;-62
2022/10/27 04:11:23;;;;;;;9.05;4.93;;;;;;;;;;5080360;28;20118;-61
2022/10/27 04:13:49;;;;;;;6.25;4.05;;;;;;;;;;5073042;28;20057;-61
2022/10/27 04:16:15;;;;;;;11.32;5.22;;;;;;;;;;5079689;28;20048;-62
2022/10/27 04:18:41;;;;;;;6.00;4.35;;;;;;;;;;5081878;28;20056;-61
2022/10/27 04:21:08;;;;;;;13.35;5.15;;;;;;;;;;5069088;28;20049;-61
2022/10/27 04:23:34;;;;;;;7.43;4.35;;;;;;;;;;5075615;28;20048;-61
2022/10/27 04:26:01;;;;;;;5.13;3.97;;;;;;;;;;5080442;28;20434;-62
2022/10/27 04:28:27;;;;;;;7.40;4.63;;;;;;;;;;5078355;28;20502;-61
2022/10/27 04:30:53;;;;;;;9.63;4.40;;;;;;;;;;5069070;28;20056;-61
2022/10/27 04:33:19;;;;;;;12.75;4.85;;;;;;;;;;5082807;28;20111;-61
2022/10/27 04:35:53;;;;;;;9.48;5.15;;;;;;;;;;5078937;28;20123;-62
2022/10/27 04:38:19;;;;;;;14.15;4.47;;;;;;;;;;5075129;28;20053;-62
2022/10/27 04:40:45;;;;;;;8.23;3.78;;;;;;;;;;5074960;28;20100;-62
2022/10/27 04:43:12;;;;;;;8.70;4.68;;;;;;;;;;5077239;28;20551;-62
2022/10/27 04:45:39;;;;;;;6.47;4.05;;;;;;;;;;5078401;28;20053;-61
2022/10/27 04:48:06;;;;;;;6.80;4.20;;;;;;;;;;5081895;28;20052;-62
2022/10/27 04:50:32;;;;;;;7.35;4.15;;;;;;;;;;5074850;28;20063;-62
2022/10/27 04:53:00;;;;;;;10.52;3.95;;;;;;;;;;5081033;28;20102;-62
2022/10/27 04:55:27;;;;;;;11.73;4.30;;;;;;;;;;5073991;28;20056;-62
2022/10/27 04:57:54;;;;;;;7.30;4.03;;;;;;;;;;5077388;28;20478;-62
2022/10/27 05:00:20;;;;;;;9.02;3.92;;;;;;;;;;5082259;28;20051;-60
2022/10/27 05:02:54;;;;;;;8.52;4.25;;;;;;;;;;5071227;28;20906;-62
2022/10/27 05:05:23;;;;;;;6.87;3.80;;;;;;;;;;5072284;28;20053;-62
2022/10/27 05:07:50;;;;;;;8.23;4.20;;;;;;;;;;5071165;28;20267;-61
2022/10/27 05:10:16;;;;;;;9.02;4.85;;;;;;;;;;5072294;28;20049;-61
2022/10/27 05:12:42;;;;;;;9.38;4.30;;;;;;;;;;5060524;28;20057;-63
2022/10/27 05:15:09;;;;;;;7.13;4.20;;;;;;;;;;5070566;28;20063;-62
2022/10/27 05:17:39;;;;;;;7.55;3.70;;;;;;;;;;5081402;28;20056;-61
2022/10/27 05:20:06;;;;;;;7.18;4.20;;;;;;;;;;5075899;28;20079;-62
2022/10/27 05:22:33;;;;;;;8.55;4.13;;;;;;;;;;5081097;28;20053;-61
2022/10/27 05:24:59;;;;;;;14.48;4.53;;;;;;;;;;5082354;28;20060;-61
2022/10/27 05:27:25;;;;;;;7.55;4.43;;;;;;;;;;5081910;28;20064;-62
2022/10/27 05:29:52;;;;;;;6.07;3.63;;;;;;;;;;5075982;28;20049;-61
2022/10/27 05:32:18;;;;;;;7.97;4.07;;;;;;;;;;5086723;28;20048;-62
2022/10/27 05:34:45;;;;;;;5.43;4.03;;;;;;;;;;5082210;28;20049;-62
2022/10/27 05:37:11;;;;;;;9.40;3.63;;;;;;;;;;5085086;28;20048;-62
2022/10/27 05:39:37;;;;;;;6.50;3.50;;;;;;;;;;5080660;28;20056;-61
2022/10/27 05:42:04;;;;;;;11.70;4.03;;;;;;;;;;5083655;28;20056;-61
2022/10/27 05:44:30;;;;;;;9.40;3.80;;;;;;;;;;5084340;28;20048;-61
2022/10/27 05:46:56;;;;;;;8.32;3.65;;;;;;;;;;5084482;28;20523;-62
2022/10/27 05:49:23;;;;;;;8.13;4.18;;;;;;;;;;5076251;28;20056;-62
2022/10/27 05:51:50;;;;;;;5.85;4.10;;;;;;;;;;5082807;27;20052;-61
2022/10/27 05:54:17;;;;;;;10.63;5.53;;;;;;;;;;5081100;28;20044;-62
2022/10/27 05:56:43;;;;;;;10.43;4.45;;;;;;;;;;5073566;28;20914;-61
2022/10/27 05:59:10;;;;;;;6.53;4.15;;;;;;;;;;5084795;28;20082;-62
2022/10/27 06:01:37;;;;;;;5.38;3.95;;;;;;;;;;5083432;28;20048;-61
2022/10/27 06:04:03;;;;;;;6.85;3.78;;;;;;;;;;5087219;28;20119;-62
2022/10/27 06:06:29;;;;;;;5.25;4.05;;;;;;;;;;5081923;28;20052;-61
2022/10/27 06:08:56;;;;;;;11.50;5.40;;;;;;;;;;5082370;28;20053;-61
2022/10/27 06:11:22;;;;;;;9.25;4.60;;;;;;;;;;5078636;28;20055;-61
2022/10/27 06:13:49;;;;;;;7.07;4.50;;;;;;;;;;5083241;28;20343;-61
2022/10/27 06:16:18;;;;;;;8.32;4.95;;;;;;;;;;5077683;28;20064;-61
2022/10/27 06:18:44;;;;;;;11.70;4.50;;;;;;;;;;5081827;28;20450;-61
2022/10/27 06:21:10;;;;;;;8.02;5.43;;;;;;;;;;5083102;28;20322;-61
2022/10/27 06:23:39;;;;;;;13.27;5.03;;;;;;;;;;5081793;28;20525;-61
2022/10/27 06:26:05;;;;;;;8.70;4.75;;;;;;;;;;5081267;28;20044;-62
2022/10/27 06:28:31;;;;;;;10.82;5.28;;;;;;;;;;5084017;28;20052;-62
2022/10/27 06:30:58;;;;;;;6.55;4.97;;;;;;;;;;5077166;28;20059;-63
2022/10/27 06:33:24;;;;;;;13.90;5.75;;;;;;;;;;5080294;28;20139;-61
2022/10/27 06:35:51;;;;;;;11.70;5.88;;;;;;;;;;5082466;28;20096;-61
2022/10/27 06:38:17;;;;;;;9.70;5.32;;;;;;;;;;5081419;28;20087;-62
2022/10/27 06:40:43;;;;;;;9.10;5.70;;;;;;;;;;5079794;28;20057;-61
2022/10/27 06:43:15;;;;;;;13.35;6.28;;;;;;;;;;5078560;28;20059;-61
2022/10/27 06:45:44;;;;;;;16.90;7.72;;;;;;;;;;5080920;28;20065;-62
2022/10/27 06:48:11;;;;;;;8.75;6.45;;;;;;;;;;5082761;28;20048;-62
2022/10/27 06:50:37;;;;;;;8.45;5.63;;;;;;;;;;5082222;28;20045;-62
2022/10/27 06:53:03;;;;;;;9.48;5.80;;;;;;;;;;5065237;28;20060;-62
2022/10/27 06:55:30;;;;;;;8.20;5.45;;;;;;;;;;5080454;28;20049;-62
2022/10/27 06:57:57;;;;;;;10.70;5.32;;;;;;;;;;5084683;28;20143;-62
2022/10/27 07:00:24;;;;;;;7.53;5.15;;;;;;;;;;5083315;27;20040;-61
2022/10/27 07:02:50;;;;;;;10.43;5.65;;;;;;;;;;5083564;28;20056;-62
2022/10/27 07:05:16;;;;;;;9.98;5.70;;;;;;;;;;5073124;28;20064;-62
2022/10/27 07:07:47;;;;;;;11.35;5.65;;;;;;;;;;5082006;28;20110;-62
2022/10/27 07:10:13;;;;;;;7.90;5.20;;;;;;;;;;5080156;28;20098;-63
2022/10/27 07:12:49;;;;;;;11.25;4.50;;;;;;;;;;5076302;28;20060;-64
2022/10/27 07:15:16;;;;;;;8.75;5.18;;;;;;;;;;5072216;27;20068;-62
2022/10/27 07:17:42;;;;;;;8.18;5.10;;;;;;;;;;5081416;28;20086;-62
2022/10/27 07:20:09;;;;;;;8.05;5.25;;;;;;;;;;5080632;28;20044;-62
2022/10/27 07:22:38;;;;;;;7.75;5.13;;;;;;;;;;5081491;28;20525;-61
2022/10/27 07:25:04;;;;;;;9.50;4.93;;;;;;;;;;5076355;28;20060;-62
2022/10/27 07:27:31;;;;;;;8.45;4.95;;;;;;;;;;5081050;28;20041;-63
2022/10/27 07:29:58;;;;;;;8.70;4.90;;;;;;;;;;5077961;28;20103;-61
2022/10/27 07:32:24;;;;;;;10.10;5.95;;;;;;;;;;5081796;28;20052;-63
2022/10/27 07:34:51;;;;;;;11.48;5.28;;;;;;;;;;5082819;28;20049;-63
2022/10/27 07:37:17;;;;;;;8.57;5.53;;;;;;;;;;5081900;28;20059;-63
2022/10/27 07:39:43;;;;;;;10.77;5.18;;;;;;;;;;5082730;28;20580;-63
2022/10/27 07:42:10;;;;;;;12.32;5.68;;;;;;;;;;5081157;28;20064;-62
2022/10/27 07:44:36;;;;;;;6.45;4.43;;;;;;;;;;5079235;28;20609;-62
2022/10/27 07:47:03;;;;;;;11.48;5.55;;;;;;;;;;5080508;28;20056;-61
2022/10/27 07:49:29;;;;;;;13.02;6.03;;;;;;;;;;5077672;28;20056;-62
2022/10/27 07:51:55;;;;;;;9.98;5.03;;;;;;;;;;5078608;28;20556;-62
2022/10/27 07:54:22;;;;;;;6.68;4.32;;;;;;;;;;5072531;28;20053;-61
2022/10/27 07:56:48;;;;;;;13.57;5.15;;;;;;;;;;5077354;28;20049;-61
2022/10/27 07:59:14;;;;;;;8.52;4.95;;;;;;;;;;5076414;28;20053;-62
2022/10/27 08:01:40;;;;;;;10.80;5.45;;;;;;;;;;5080748;28;20640;-61
2022/10/27 08:04:07;;;;;;;9.52;4.45;;;;;;;;;;5078085;28;20055;-62
2022/10/27 08:06:33;;;;;;;7.43;4.43;;;;;;;;;;5080012;28;20675;-62
2022/10/27 08:08:59;;;;;;;7.53;5.03;;;;;;;;;;5070806;27;22502;-61
2022/10/27 08:11:26;;;;;;;10.50;5.07;;;;;;;;;;5079386;28;20045;-62
2022/10/27 08:13:52;;;;;;;11.60;5.03;;;;;;;;;;5080839;28;20052;-62
2022/10/27 08:16:19;;;;;;;9.52;4.60;;;;;;;;;;5081018;28;20434;-62
2022/10/27 08:18:45;;;;;;;8.20;4.63;;;;;;;;;;5082060;28;20052;-62
2022/10/27 08:21:12;;;;;;;9.88;4.68;;;;;;;;;;5079884;28;20048;-61
2022/10/27 08:23:39;;;;;;;15.13;4.45;;;;;;;;;;5084785;28;20056;-64
2022/10/27 08:26:05;;;;;;;36.22;5.78;;;;;;;;;;5081244;28;20049;-63
2022/10/27 08:28:31;;;;;;;10.77;5.13;;;;;;;;;;5079555;28;20450;-62
2022/10/27 08:30:58;;;;;;;10.25;4.68;;;;;;;;;;5083636;28;20530;-62
2022/10/27 08:33:24;;;;;;;12.93;4.32;;;;;;;;;;5081457;28;20059;-61
2022/10/27 08:35:51;;;;;;;6.78;4.25;;;;;;;;;;5084386;28;20608;-61
2022/10/27 08:38:18;;;;;;;12.05;4.80;;;;;;;;;;5087862;28;20040;-62
2022/10/27 08:41:03;;;;;;;9.10;4.70;;;;;;;;;;5080307;28;20052;-62
2022/10/27 08:43:36;;;;;;;6.63;3.73;;;;;;;;;;5079591;28;20580;-62
2022/10/27 08:46:25;;;;;;;7.20;4.55;;;;;;;;;;5081082;28;20900;-62
2022/10/27 08:49:00;;;;;;;6.07;3.20;;;;;;;;;;5064725;28;20052;-62
2022/10/27 08:51:28;;;;;;;7.88;3.83;;;;;;;;;;5069360;28;20053;-61
2022/10/27 08:53:55;;;;;;;7.78;3.47;;;;;;;;;;5074576;28;20926;-61
2022/10/27 08:56:22;;;;;;;6.63;3.35;;;;;;;;;;5070313;28;20158;-63
2022/10/27 08:58:48;;;;;;;6.00;3.60;;;;;;;;;;5073633;28;20049;-62
2022/10/27 09:01:18;;;;;;;10.02;3.78;;;;;;;;;;5080034;28;20056;-62
2022/10/27 09:04:06;;;;;;;5.20;3.17;;;;;;;;;;5080342;28;20063;-62
2022/10/27 09:06:38;;;;;;;6.85;3.15;;;;;;;;;;5079400;28;20548;-61
2022/10/27 09:09:11;;;;;;;7.82;3.63;;;;;;;;;;5078371;28;20051;-61
2022/10/27 09:11:37;;;;;;;5.88;3.47;;;;;;;;;;5080111;28;20444;-62
2022/10/27 09:14:15;;;;;;;11.32;4.22;;;;;;;;;;5079733;28;20060;-65
2022/10/27 09:16:50;;;;;;;9.15;6.13;;;;;;;;;;5077502;28;20053;-66
2022/10/27 09:19:22;;;;;;;13.43;5.37;;;;;;;;;;5070812;28;20557;-65
2022/10/27 09:21:49;;;;;;;9.32;6.53;;;;;;;;;;5074265;28;20697;-65
2022/10/27 09:24:17;;;;;;;9.48;4.35;;;;;;;;;;5081063;28;20131;-66
2022/10/27 09:26:45;;;;;;;5.97;3.90;;;;;;;;;;5082666;28;20063;-66
2022/10/27 09:29:24;;;;;;;8.23;3.90;;;;;;;;;;5080440;28;20132;-65
2022/10/27 09:31:54;;;;;;;7.18;3.28;;;;;;;;;;5081563;28;20575;-65
2022/10/27 09:34:23;;;;;;;7.45;2.50;;;;;;;;;;5081266;28;20052;-65
2022/10/27 09:36:49;;;;;;;7.60;3.22;;;;;;;;;;5082343;28;20053;-66
2022/10/27 09:39:16;;;;;;;5.80;3.38;;;;;;;;;;5083320;28;20534;-65
2022/10/27 09:41:42;;;;;;;3.85;3.20;;;;;;;;;;5079257;28;20131;-63
2022/10/27 09:44:22;;;;;;;15.32;2.88;;;;;;;;;;5078288;28;20052;-63
2022/10/27 09:46:54;;;;;;;5.70;2.87;;;;;;;;;;5076166;28;20054;-63
2022/10/27 09:49:22;;;;;;;6.47;2.58;;;;;;;;;;5080615;28;20258;-62
2022/10/27 09:51:51;;;;;;;7.85;2.65;;;;;;;;;;5072401;28;20142;-63
2022/10/27 09:54:28;;;;;;;3.72;2.50;;;;;;;;;;5070952;28;20057;-62
2022/10/27 09:57:00;;;;;;;3.97;2.13;;;;;;;;;;5074802;28;20056;-64
2022/10/27 09:59:27;;;;;;;5.93;2.40;;;;;;;;;;5067261;28;20510;-62
2022/10/27 10:01:58;;;;;;;6.10;2.30;;;;;;;;;;5078145;28;20086;-62
2022/10/27 10:04:27;;;;;;;4.53;2.33;;;;;;;;;;5079768;28;20064;-63
2022/10/27 10:07:01;;;;;;;7.18;2.10;;;;;;;;;;5076993;28;20056;-62
2022/10/27 10:09:27;;;;;;;4.65;2.17;;;;;;;;;;5077816;28;20513;-62
2022/10/27 10:12:12;;;;;;;4.75;2.30;;;;;;;;;;5073865;28;20530;-62
2022/10/27 10:14:42;;;;;;;5.95;2.38;;;;;;;;;;5076599;28;20045;-62
2022/10/27 10:17:41;;;;;;;4.68;2.50;;;;;;;;;;5082629;28;20145;-62
2022/10/27 10:20:25;;;;;;;4.40;1.77;;;;;;;;;;5047154;28;20059;-62
2022/10/27 10:22:51;;;;;;;5.00;1.90;;;;;;;;;;5081446;28;20045;-62
2022/10/27 10:25:18;;;;;;;3.33;1.90;;;;;;;;;;5082383;28;20223;-62
2022/10/27 10:27:46;;;;;;;3.97;2.30;;;;;;;;;;5082064;28;20059;-62
2022/10/27 10:30:19;;;;;;;5.38;2.45;;;;;;;;;;5082744;28;20060;-61
2022/10/27 10:32:47;;;;;;;6.30;2.05;;;;;;;;;;5083251;28;20048;-61
2022/10/27 10:35:32;;;;;;;7.57;2.67;;;;;;;;;;5081540;28;20550;-62
2022/10/27 10:37:58;;;;;;;6.20;1.77;;;;;;;;;;5082237;28;20051;-63
2022/10/27 10:40:30;;;;;;;8.07;1.92;;;;;;;;;;5082212;28;20064;-62
2022/10/27 10:43:04;;;;;;;5.22;2.05;;;;;;;;;;5084582;28;20053;-62
2022/10/27 10:45:34;;;;;;;5.53;1.77;;;;;;;;;;5083092;28;20060;-61
2022/10/27 10:48:05;;;;;;;5.03;1.85;;;;;;;;;;5082427;28;20141;-62
2022/10/27 10:50:34;;;;;;;16.17;1.95;;;;;;;;;;5081717;28;20138;-61
2022/10/27 10:53:00;;;;;;;3.22;1.85;;;;;;;;;;5081542;28;20048;-63
2022/10/27 10:55:26;;;;;;;6.40;1.70;;;;;;;;;;5073961;28;20514;-62
2022/10/27 10:57:54;;;;;;;2.63;1.83;;;;;;;;;;5070579;28;20055;-62
2022/10/27 11:00:20;;;;;;;3.25;2.03;;;;;;;;;;5071834;28;20052;-61
2022/10/27 11:03:09;;;;;;;5.93;2.25;;;;;;;;;;5077407;28;20049;-62
2022/10/27 11:05:36;;;;;;;9.50;2.35;;;;;;;;;;5071781;28;20048;-62
2022/10/27 11:08:04;;;;;;;5.55;2.50;;;;;;;;;;5073161;28;20068;-63
2022/10/27 11:10:35;;;;;;;8.20;2.20;;;;;;;;;;5071157;28;20506;-65
2022/10/27 11:13:03;;;;;;;3.80;2.10;;;;;;;;;;5072873;28;20048;-65
2022/10/27 11:15:39;;;;;;;3.80;1.98;;;;;;;;;;5073023;28;20060;-62
2022/10/27 11:18:08;;;;;;;7.65;2.20;;;;;;;;;;5073064;28;20071;-62
2022/10/27 11:20:35;;;;;;;3.83;1.88;;;;;;;;;;5072208;28;20060;-64
2022/10/27 11:23:17;;;;;;;4.80;1.98;;;;;;;;;;5072155;28;20048;-63
2022/10/27 11:25:44;;;;;;;3.47;1.92;;;;;;;;;;5072331;28;20110;-62
2022/10/27 11:28:32;;;;;;;4.05;2.20;;;;;;;;;;5071388;28;20056;-62
2022/10/27 11:31:01;;;;;;;10.35;2.13;;;;;;;;;;5070212;28;20164;-64
2022/10/27 11:33:36;;;;;;;12.07;2.35;;;;;;;;;;5072146;28;20060;-63
2022/10/27 11:36:07;;;;;;;7.10;2.05;;;;;;;;;;5074600;28;20457;-63
2022/10/27 11:38:41;;;;;;;4.72;1.60;;;;;;;;;;5071616;28;20613;-63
2022/10/27 11:41:12;;;;;;;5.45;2.40;;;;;;;;;;5081654;28;20068;-65
2022/10/27 11:43:43;;;;;;;;;;;;;;;;;;5080092;28;20442;-63
2022/10/27 11:46:14;;;;;;;8.68;2.30;;;;;;;;;;5087690;28;45223;-63
2022/10/27 11:48:44;;;;;;;3.40;1.67;;;;;;;;;;5082897;28;20452;-64
2022/10/27 11:51:17;;;;;;;4.70;2.30;;;;;;;;;;5081286;28;20091;-64
2022/10/27 11:53:43;;;;;;;4.18;1.70;;;;;;;;;;5081715;28;20056;-62
2022/10/27 11:56:18;;;;;;;7.95;1.92;;;;;;;;;;5079729;28;20533;-63
2022/10/27 11:58:44;;;;;;;10.95;2.45;;;;;;;;;;5089027;28;20052;-63
2022/10/27 12:01:11;;;;;;;5.47;1.50;;;;;;;;;;5081528;28;20557;-63
2022/10/27 12:03:58;;;;;;;4.72;2.33;;;;;;;;;;5081351;28;20055;-63
2022/10/27 12:06:24;;;;;;;3.17;1.65;;;;;;;;;;5087493;28;20067;-63
2022/10/27 12:09:09;;;;;;;4.82;1.98;;;;;;;;;;5092325;27;20056;-63
2022/10/27 12:11:47;;;;;;;4.30;2.03;;;;;;;;;;5070642;28;20059;-63
2022/10/27 12:14:21;;;;;;;5.20;1.70;;;;;;;;;;5080840;28;20052;-63
2022/10/27 12:16:54;;;;;;;3.63;1.92;;;;;;;;;;5082167;28;20483;-63
2022/10/27 12:19:26;;;;;;;5.03;1.60;;;;;;;;;;5081530;28;20052;-63
2022/10/27 12:21:55;;;;;;;3.22;1.70;;;;;;;;;;5080117;28;20063;-63
2022/10/27 12:24:37;;;;;;;4.88;1.95;;;;;;;;;;5086488;28;20458;-63
2022/10/27 12:27:06;;;;;;;6.93;2.05;;;;;;;;;;5079663;28;20048;-64
2022/10/27 12:29:34;;;;;;;4.95;2.03;;;;;;;;;;5095723;28;20056;-63
2022/10/27 12:32:11;;;;;;;3.58;1.80;;;;;;;;;;5080551;28;20071;-62
2022/10/27 12:34:41;;;;;;;4.25;1.85;;;;;;;;;;5074392;28;20110;-61
2022/10/27 12:37:13;;;;;;;7.55;2.42;;;;;;;;;;5085606;28;20052;-63
2022/10/27 12:39:58;;;;;;;3.78;1.92;;;;;;;;;;5095903;28;20135;-62
2022/10/27 12:42:48;;;;;;;6.05;1.95;;;;;;;;;;5080336;28;20514;-63
2022/10/27 12:45:14;;;;;;;8.05;2.15;;;;;;;;;;5036361;28;20057;-63
2022/10/27 12:47:43;;;;;;;4.90;1.95;;;;;;;;;;5037653;28;20049;-62
2022/10/27 12:50:41;;;;;;;4.82;2.20;;;;;;;;;;5037740;28;20569;-62
2022/10/27 12:53:08;;;;;;;3.45;2.20;;;;;;;;;;4925298;28;20048;-63
2022/10/27 12:55:41;;;;;;;5.13;2.03;;;;;;;;;;4917599;28;20264;-64
2022/10/27 12:58:13;;;;;;;4.38;1.77;;;;;;;;;;4930491;28;20059;-63
2022/10/27 13:00:59;;;;;;;5.75;2.20;;;;;;;;;;4930644;28;20055;-63
2022/10/27 13:03:46;;;;;;;7.38;2.42;;;;;;;;;;4919694;28;20196;-65
2022/10/27 13:06:22;;;;;;;3.78;1.83;;;;;;;;;;4912756;28;20056;-64
2022/10/27 13:08:51;;;;;;;4.15;2.22;;;;;;;;;;4921445;28;20059;-64
2022/10/27 13:11:34;;;;;;;3.65;1.70;;;;;;;;;;4925257;28;20889;-64
2022/10/27 13:14:13;;;;;;;5.80;2.22;;;;;;;;;;4920110;28;20056;-64
2022/10/27 13:16:48;;;;;;;5.88;2.15;;;;;;;;;;4927695;28;20610;-65
2022/10/27 13:19:32;;;;;;;9.40;2.25;;;;;;;;;;4921533;28;20060;-64
2022/10/27 13:22:20;;;;;;;8.60;2.22;;;;;;;;;;4938050;28;20481;-64
2022/10/27 13:25:09;;;;;;;4.85;2.40;;;;;;;;;;4974426;28;20524;-64
2022/10/27 13:27:46;;;;;;;7.90;2.35;;;;;;;;;;4931145;28;20542;-65
2022/10/27 13:30:16;;;;;;;4.95;2.55;;;;;;;;;;5028445;28;20061;-64
2022/10/27 13:32:45;;;;;;;5.32;2.30;;;;;;;;;;5031937;28;20061;-64
2022/10/27 13:35:11;;;;;;;7.20;2.33;;;;;;;;;;5034385;28;20475;-65
2022/10/27 13:37:47;;;;;;;6.03;2.20;;;;;;;;;;5025950;28;20057;-64
2022/10/27 13:40:13;;;;;;;;;;;;;;;;;;5032027;28;20504;-64
2022/10/27 13:42:39;;;;;;;5.45;2.53;;;;;;;;;;5022888;28;46911;-64
2022/10/27 13:45:31;;;;;;;4.75;2.42;;;;;;;;;;5028359;28;20131;-63
2022/10/27 13:48:04;;;;;;;5.88;2.53;;;;;;;;;;5028782;28;20772;-64
2022/10/27 13:50:31;;;;;;;4.47;2.53;;;;;;;;;;5034293;28;20539;-63
2022/10/27 13:53:19;;;;;;;6.07;2.72;;;;;;;;;;5024924;28;20243;-63
2022/10/27 13:55:46;;;;;;;5.03;2.42;;;;;;;;;;5023511;28;20509;-63
2022/10/27 13:58:15;;;;;;;5.07;2.45;;;;;;;;;;5020420;28;20049;-63
2022/10/27 14:01:01;;;;;;;7.22;2.78;;;;;;;;;;5024679;28;20589;-62
2022/10/27 14:03:37;;;;;;;5.55;2.28;;;;;;;;;;5024811;28;20507;-63
2022/10/27 14:06:08;;;;;;;5.85;2.20;;;;;;;;;;5072760;28;20086;-64
2022/10/27 14:08:48;;;;;;;6.10;2.88;;;;;;;;;;5070707;28;20529;-63
2022/10/27 14:11:16;;;;;;;3.30;2.30;;;;;;;;;;5071240;28;20045;-64
2022/10/27 14:13:47;;;;;;;5.40;2.35;;;;;;;;;;5077093;28;20055;-64
2022/10/27 14:16:24;;;;;;;7.97;2.47;;;;;;;;;;5069480;28;20063;-64
2022/10/27 14:19:16;;;;;;;7.97;2.90;;;;;;;;;;5069411;28;20481;-63
2022/10/27 14:21:51;;;;;;;9.60;2.45;;;;;;;;;;5071977;28;20537;-62
2022/10/27 14:24:39;;;;;;;4.85;2.33;;;;;;;;;;5072449;28;20053;-64
2022/10/27 14:27:05;;;;;;;4.97;2.15;;;;;;;;;;5072834;28;20333;-63
2022/10/27 14:29:32;;;;;;;6.80;2.10;;;;;;;;;;5063023;28;20052;-64
2022/10/27 14:32:13;;;;;;;14.68;2.60;;;;;;;;;;5080068;28;20682;-63
2022/10/27 14:34:39;;;;;;;5.00;2.08;;;;;;;;;;5072179;28;20498;-62
2022/10/27 14:37:13;;;;;;;3.13;2.08;;;;;;;;;;5076698;28;20060;-63
2022/10/27 14:39:39;;;;;;;4.03;2.72;;;;;;;;;;5065441;28;20114;-63
2022/10/27 14:42:15;;;;;;;6.30;2.55;;;;;;;;;;5072020;28;20057;-63
2022/10/27 14:44:42;;;;;;;5.88;2.38;;;;;;;;;;5077699;28;20083;-63
2022/10/27 14:47:11;;;;;;;6.47;2.75;;;;;;;;;;5076248;28;20056;-64
2022/10/27 14:49:42;;;;;;;5.47;2.10;;;;;;;;;;5079004;28;20523;-63
2022/10/27 14:52:14;;;;;;;3.70;1.85;;;;;;;;;;5079425;28;20493;-63
2022/10/27 14:54:42;;;;;;;4.85;1.60;;;;;;;;;;5081458;28;20059;-63
2022/10/27 14:57:28;;;;;;;5.50;2.35;;;;;;;;;;5070873;28;20056;-64